sensor_id;sensor_type;location;lat;lon;timestamp;pressure;altitude;pressure_sealevel;temperature
24586;BMP280;12743;52.262;6.172;2023-04-21T00:00:54;100074.72;;;8.43
24586;BMP280;12743;52.262;6.172;2023-04-21T00:03:21;100077.19;;;8.39
24586;BMP280;12743;52.262;6.172;2023-04-21T00:05:50;100065.41;;;8.33
24586;BMP280;12743;52.262;6.172;2023-04-21T00:08:17;100059.00;;;8.43
24586;BMP280;12743;52.262;6.172;2023-04-21T00:10:44;100050.78;;;8.32
24586;BMP280;12743;52.262;6.172;2023-04-21T00:13:12;100010.25;;;8.26
24586;BMP280;12743;52.262;6.172;2023-04-21T00:15:40;100009.16;;;8.27
24586;BMP280;12743;52.262;6.172;2023-04-21T00:18:06;100026.41;;;8.40
24586;BMP280;12743;52.262;6.172;2023-04-21T00:20:33;100007.00;;;8.41
24586;BMP280;12743;52.262;6.172;2023-04-21T00:22:59;100057.59;;;8.45
24586;BMP280;12743;52.262;6.172;2023-04-21T00:25:26;100020.72;;;8.38
24586;BMP280;12743;52.262;6.172;2023-04-21T00:27:53;100018.22;;;8.42
24586;BMP280;12743;52.262;6.172;2023-04-21T00:30:19;99999.59;;;8.43
24586;BMP280;12743;52.262;6.172;2023-04-21T00:32:46;100005.59;;;8.44
24586;BMP280;12743;52.262;6.172;2023-04-21T00:35:13;100014.19;;;8.44
24586;BMP280;12743;52.262;6.172;2023-04-21T00:37:39;99992.84;;;8.42
24586;BMP280;12743;52.262;6.172;2023-04-21T00:40:07;99938.31;;;8.32
24586;BMP280;12743;52.262;6.172;2023-04-21T00:42:34;99884.69;;;8.14
24586;BMP280;12743;52.262;6.172;2023-04-21T00:45:02;99903.88;;;8.30
24586;BMP280;12743;52.262;6.172;2023-04-21T00:47:29;99904.75;;;8.34
24586;BMP280;12743;52.262;6.172;2023-04-21T00:49:57;99883.25;;;8.29
24586;BMP280;12743;52.262;6.172;2023-04-21T00:52:25;99862.31;;;8.29
24586;BMP280;12743;52.262;6.172;2023-04-21T00:54:52;99859.19;;;8.23
24586;BMP280;12743;52.262;6.172;2023-04-21T00:57:20;99821.47;;;8.12
24586;BMP280;12743;52.262;6.172;2023-04-21T00:59:46;99843.03;;;8.21
24586;BMP280;12743;52.262;6.172;2023-04-21T01:02:14;99828.31;;;8.29
24586;BMP280;12743;52.262;6.172;2023-04-21T01:04:42;99869.97;;;8.22
24586;BMP280;12743;52.262;6.172;2023-04-21T01:07:09;99893.63;;;8.37
24586;BMP280;12743;52.262;6.172;2023-04-21T01:09:36;99853.22;;;8.47
24586;BMP280;12743;52.262;6.172;2023-04-21T01:12:08;99848.19;;;8.30
24586;BMP280;12743;52.262;6.172;2023-04-21T01:14:37;99848.59;;;8.32
24586;BMP280;12743;52.262;6.172;2023-04-21T01:17:04;99849.84;;;8.34
24586;BMP280;12743;52.262;6.172;2023-04-21T01:19:33;99866.34;;;8.38
24586;BMP280;12743;52.262;6.172;2023-04-21T01:22:02;99851.13;;;8.40
24586;BMP280;12743;52.262;6.172;2023-04-21T01:24:43;99854.59;;;8.32
24586;BMP280;12743;52.262;6.172;2023-04-21T01:27:13;99848.81;;;8.39
24586;BMP280;12743;52.262;6.172;2023-04-21T01:29:41;99872.19;;;8.44
24586;BMP280;12743;52.262;6.172;2023-04-21T01:32:14;99909.63;;;8.48
24586;BMP280;12743;52.262;6.172;2023-04-21T01:34:41;99895.91;;;8.51
24586;BMP280;12743;52.262;6.172;2023-04-21T01:37:16;99876.84;;;8.50
24586;BMP280;12743;52.262;6.172;2023-04-21T01:39:49;99858.75;;;8.45
24586;BMP280;12743;52.262;6.172;2023-04-21T01:42:18;99857.56;;;8.43
24586;BMP280;12743;52.262;6.172;2023-04-21T01:44:45;99854.81;;;8.39
24586;BMP280;12743;52.262;6.172;2023-04-21T01:47:15;99851.03;;;8.37
24586;BMP280;12743;52.262;6.172;2023-04-21T01:49:42;99823.88;;;8.29
24586;BMP280;12743;52.262;6.172;2023-04-21T01:52:09;99845.56;;;8.42
24586;BMP280;12743;52.262;6.172;2023-04-21T01:54:35;99846.19;;;8.51
24586;BMP280;12743;52.262;6.172;2023-04-21T01:57:02;99851.00;;;8.49
24586;BMP280;12743;52.262;6.172;2023-04-21T01:59:29;99843.06;;;8.45
24586;BMP280;12743;52.262;6.172;2023-04-21T02:01:56;99802.94;;;8.17
24586;BMP280;12743;52.262;6.172;2023-04-21T02:04:23;99816.78;;;8.30
24586;BMP280;12743;52.262;6.172;2023-04-21T02:06:49;99817.34;;;8.35
24586;BMP280;12743;52.262;6.172;2023-04-21T02:09:16;99823.44;;;8.39
24586;BMP280;12743;52.262;6.172;2023-04-21T02:11:43;99810.47;;;8.43
24586;BMP280;12743;52.262;6.172;2023-04-21T02:14:10;99834.00;;;8.43
24586;BMP280;12743;52.262;6.172;2023-04-21T02:16:39;99832.47;;;8.42
24586;BMP280;12743;52.262;6.172;2023-04-21T02:19:06;99828.97;;;8.38
24586;BMP280;12743;52.262;6.172;2023-04-21T02:21:32;99823.69;;;8.34
24586;BMP280;12743;52.262;6.172;2023-04-21T02:23:59;99858.19;;;8.52
24586;BMP280;12743;52.262;6.172;2023-04-21T02:26:25;99866.03;;;8.52
24586;BMP280;12743;52.262;6.172;2023-04-21T02:28:52;99873.13;;;8.51
24586;BMP280;12743;52.262;6.172;2023-04-21T02:31:19;99863.56;;;8.55
24586;BMP280;12743;52.262;6.172;2023-04-21T02:33:47;99845.38;;;8.47
24586;BMP280;12743;52.262;6.172;2023-04-21T02:36:13;99825.09;;;8.44
24586;BMP280;12743;52.262;6.172;2023-04-21T02:38:40;99812.19;;;8.39
24586;BMP280;12743;52.262;6.172;2023-04-21T02:41:08;99815.16;;;8.37
24586;BMP280;12743;52.262;6.172;2023-04-21T02:43:35;99815.56;;;8.39
24586;BMP280;12743;52.262;6.172;2023-04-21T02:46:05;99806.97;;;8.39
24586;BMP280;12743;52.262;6.172;2023-04-21T02:48:34;99803.19;;;8.36
24586;BMP280;12743;52.262;6.172;2023-04-21T02:51:00;99808.50;;;8.40
24586;BMP280;12743;52.262;6.172;2023-04-21T02:53:27;99818.75;;;8.45
24586;BMP280;12743;52.262;6.172;2023-04-21T02:55:54;99817.75;;;8.49
24586;BMP280;12743;52.262;6.172;2023-04-21T02:58:22;99810.25;;;8.36
24586;BMP280;12743;52.262;6.172;2023-04-21T03:00:48;99815.69;;;8.43
24586;BMP280;12743;52.262;6.172;2023-04-21T03:03:15;99803.81;;;8.33
24586;BMP280;12743;52.262;6.172;2023-04-21T03:05:42;99803.63;;;8.26
24586;BMP280;12743;52.262;6.172;2023-04-21T03:08:09;99808.16;;;8.29
24586;BMP280;12743;52.262;6.172;2023-04-21T03:10:36;99807.97;;;8.34
24586;BMP280;12743;52.262;6.172;2023-04-21T03:13:03;99807.41;;;8.29
24586;BMP280;12743;52.262;6.172;2023-04-21T03:15:30;99806.53;;;8.25
24586;BMP280;12743;52.262;6.172;2023-04-21T03:18:00;99795.53;;;8.19
24586;BMP280;12743;52.262;6.172;2023-04-21T03:20:26;99802.19;;;8.17
24586;BMP280;12743;52.262;6.172;2023-04-21T03:22:53;99803.19;;;8.24
24586;BMP280;12743;52.262;6.172;2023-04-21T03:25:20;99808.16;;;8.29
24586;BMP280;12743;52.262;6.172;2023-04-21T03:27:47;99781.28;;;8.04
24586;BMP280;12743;52.262;6.172;2023-04-21T03:30:13;99803.19;;;8.24
24586;BMP280;12743;52.262;6.172;2023-04-21T03:32:40;99790.31;;;8.19
24586;BMP280;12743;52.262;6.172;2023-04-21T03:35:07;99787.16;;;8.14
24586;BMP280;12743;52.262;6.172;2023-04-21T03:37:33;99778.31;;;8.18
24586;BMP280;12743;52.262;6.172;2023-04-21T03:40:00;99781.50;;;8.24
24586;BMP280;12743;52.262;6.172;2023-04-21T03:42:27;99764.41;;;8.14
24586;BMP280;12743;52.262;6.172;2023-04-21T03:44:55;99784.88;;;8.24
24586;BMP280;12743;52.262;6.172;2023-04-21T03:47:22;99805.97;;;8.31
24586;BMP280;12743;52.262;6.172;2023-04-21T03:49:50;99816.66;;;8.38
24586;BMP280;12743;52.262;6.172;2023-04-21T03:52:16;99818.63;;;8.29
24586;BMP280;12743;52.262;6.172;2023-04-21T03:54:43;99814.94;;;8.42
24586;BMP280;12743;52.262;6.172;2023-04-21T03:57:10;99817.88;;;8.29
24586;BMP280;12743;52.262;6.172;2023-04-21T03:59:36;99821.88;;;8.38
24586;BMP280;12743;52.262;6.172;2023-04-21T04:02:03;99797.63;;;8.26
24586;BMP280;12743;52.262;6.172;2023-04-21T04:04:30;99764.28;;;8.11
24586;BMP280;12743;52.262;6.172;2023-04-21T04:06:57;99802.75;;;8.34
24586;BMP280;12743;52.262;6.172;2023-04-21T04:09:24;99809.13;;;8.49
24586;BMP280;12743;52.262;6.172;2023-04-21T04:11:50;99798.25;;;8.35
24586;BMP280;12743;52.262;6.172;2023-04-21T04:14:17;99806.84;;;8.47
24586;BMP280;12743;52.262;6.172;2023-04-21T04:16:43;99812.31;;;8.42
24586;BMP280;12743;52.262;6.172;2023-04-21T04:19:10;99814.78;;;8.51
24586;BMP280;12743;52.262;6.172;2023-04-21T04:21:37;99820.03;;;8.51
24586;BMP280;12743;52.262;6.172;2023-04-21T04:24:04;99826.94;;;8.43
24586;BMP280;12743;52.262;6.172;2023-04-21T04:26:31;99837.59;;;8.50
24586;BMP280;12743;52.262;6.172;2023-04-21T04:29:01;99825.84;;;8.32
24586;BMP280;12743;52.262;6.172;2023-04-21T04:31:28;99832.69;;;8.49
24586;BMP280;12743;52.262;6.172;2023-04-21T04:33:56;99837.69;;;8.42
24586;BMP280;12743;52.262;6.172;2023-04-21T04:36:23;99824.06;;;8.48
24586;BMP280;12743;52.262;6.172;2023-04-21T04:38:50;99793.38;;;8.33
24586;BMP280;12743;52.262;6.172;2023-04-21T04:41:17;99797.81;;;8.45
24586;BMP280;12743;52.262;6.172;2023-04-21T04:43:44;99811.09;;;8.52
24586;BMP280;12743;52.262;6.172;2023-04-21T04:46:11;99809.13;;;8.49
24586;BMP280;12743;52.262;6.172;2023-04-21T04:48:39;99773.28;;;8.37
24586;BMP280;12743;52.262;6.172;2023-04-21T04:51:05;99773.97;;;8.34
24586;BMP280;12743;52.262;6.172;2023-04-21T04:53:32;99792.47;;;8.41
24586;BMP280;12743;52.262;6.172;2023-04-21T04:55:58;99782.56;;;8.23
24586;BMP280;12743;52.262;6.172;2023-04-21T04:58:25;99791.38;;;8.42
24586;BMP280;12743;52.262;6.172;2023-04-21T05:00:52;99793.78;;;8.35
24586;BMP280;12743;52.262;6.172;2023-04-21T05:03:18;99782.66;;;8.38
24586;BMP280;12743;52.262;6.172;2023-04-21T05:05:45;99787.69;;;8.43
24586;BMP280;12743;52.262;6.172;2023-04-21T05:08:12;99797.03;;;8.44
24586;BMP280;12743;52.262;6.172;2023-04-21T05:10:41;99800.75;;;8.55
24586;BMP280;12743;52.262;6.172;2023-04-21T05:13:08;99778.94;;;8.51
24586;BMP280;12743;52.262;6.172;2023-04-21T05:15:34;99749.28;;;8.47
24586;BMP280;12743;52.262;6.172;2023-04-21T05:18:01;99765.84;;;8.51
24586;BMP280;12743;52.262;6.172;2023-04-21T05:20:28;99768.81;;;8.50
24586;BMP280;12743;52.262;6.172;2023-04-21T05:22:54;99779.69;;;8.52
24586;BMP280;12743;52.262;6.172;2023-04-21T05:25:21;99780.59;;;8.56
24586;BMP280;12743;52.262;6.172;2023-04-21T05:27:47;99766.31;;;8.53
24586;BMP280;12743;52.262;6.172;2023-04-21T05:30:14;99777.28;;;8.59
24586;BMP280;12743;52.262;6.172;2023-04-21T05:32:41;99770.63;;;8.61
24586;BMP280;12743;52.262;6.172;2023-04-21T05:35:08;99736.44;;;8.42
24586;BMP280;12743;52.262;6.172;2023-04-21T05:37:35;99764.34;;;8.50
24586;BMP280;12743;52.262;6.172;2023-04-21T05:40:01;99765.06;;;8.63
24586;BMP280;12743;52.262;6.172;2023-04-21T05:42:28;99767.25;;;8.61
24586;BMP280;12743;52.262;6.172;2023-04-21T05:44:54;99753.66;;;8.55
24586;BMP280;12743;52.262;6.172;2023-04-21T05:47:21;99773.13;;;8.58
24586;BMP280;12743;52.262;6.172;2023-04-21T05:49:50;99759.84;;;8.63
24586;BMP280;12743;52.262;6.172;2023-04-21T05:52:19;99774.19;;;8.69
24586;BMP280;12743;52.262;6.172;2023-04-21T05:54:47;99770.50;;;8.70
24586;BMP280;12743;52.262;6.172;2023-04-21T05:57:13;99775.19;;;8.77
24586;BMP280;12743;52.262;6.172;2023-04-21T05:59:41;99769.50;;;8.74
24586;BMP280;12743;52.262;6.172;2023-04-21T06:02:09;99768.31;;;8.72
24586;BMP280;12743;52.262;6.172;2023-04-21T06:04:36;99760.81;;;8.70
24586;BMP280;12743;52.262;6.172;2023-04-21T06:07:05;99754.81;;;8.70
24586;BMP280;12743;52.262;6.172;2023-04-21T06:09:32;99747.78;;;8.74
24586;BMP280;12743;52.262;6.172;2023-04-21T06:11:59;99754.16;;;8.73
24586;BMP280;12743;52.262;6.172;2023-04-21T06:14:27;99760.16;;;8.73
24586;BMP280;12743;52.262;6.172;2023-04-21T06:16:53;99722.75;;;8.61
24586;BMP280;12743;52.262;6.172;2023-04-21T06:19:20;99739.22;;;8.73
24586;BMP280;12743;52.262;6.172;2023-04-21T06:21:46;99747.31;;;8.84
24586;BMP280;12743;52.262;6.172;2023-04-21T06:24:13;99731.78;;;8.76
24586;BMP280;12743;52.262;6.172;2023-04-21T06:26:39;99731.53;;;8.81
24586;BMP280;12743;52.262;6.172;2023-04-21T06:29:06;99730.91;;;8.71
24586;BMP280;12743;52.262;6.172;2023-04-21T06:31:32;99730.44;;;8.82
24586;BMP280;12743;52.262;6.172;2023-04-21T06:33:59;99751.97;;;8.91
24586;BMP280;12743;52.262;6.172;2023-04-21T06:36:26;99732.25;;;8.93
24586;BMP280;12743;52.262;6.172;2023-04-21T06:38:52;99742.63;;;8.90
24586;BMP280;12743;52.262;6.172;2023-04-21T06:41:19;99741.19;;;8.92
24586;BMP280;12743;52.262;6.172;2023-04-21T06:43:49;99737.50;;;8.93
24586;BMP280;12743;52.262;6.172;2023-04-21T06:46:15;99751.56;;;8.89
24586;BMP280;12743;52.262;6.172;2023-04-21T06:48:42;99737.97;;;8.83
24586;BMP280;12743;52.262;6.172;2023-04-21T06:51:08;99756.47;;;8.90
24586;BMP280;12743;52.262;6.172;2023-04-21T06:53:35;99762.03;;;8.89
24586;BMP280;12743;52.262;6.172;2023-04-21T06:56:03;99758.56;;;8.85
24586;BMP280;12743;52.262;6.172;2023-04-21T06:58:29;99765.06;;;8.91
24586;BMP280;12743;52.262;6.172;2023-04-21T07:00:56;99758.09;;;8.95
24586;BMP280;12743;52.262;6.172;2023-04-21T07:03:22;99744.59;;;8.93
24586;BMP280;12743;52.262;6.172;2023-04-21T07:05:49;99749.47;;;8.94
24586;BMP280;12743;52.262;6.172;2023-04-21T07:08:16;99748.94;;;8.89
24586;BMP280;12743;52.262;6.172;2023-04-21T07:10:43;99723.16;;;8.75
24586;BMP280;12743;52.262;6.172;2023-04-21T07:13:09;99746.84;;;8.94
24586;BMP280;12743;52.262;6.172;2023-04-21T07:15:36;99750.66;;;8.97
24586;BMP280;12743;52.262;6.172;2023-04-21T07:18:02;99739.75;;;8.95
24586;BMP280;12743;52.262;6.172;2023-04-21T07:20:29;99739.63;;;9.03
24586;BMP280;12743;52.262;6.172;2023-04-21T07:22:55;99730.91;;;8.99
24586;BMP280;12743;52.262;6.172;2023-04-21T07:25:22;99726.38;;;8.84
24586;BMP280;12743;52.262;6.172;2023-04-21T07:27:48;99735.56;;;9.06
24586;BMP280;12743;52.262;6.172;2023-04-21T07:30:15;99744.75;;;9.00
24586;BMP280;12743;52.262;6.172;2023-04-21T07:32:42;99727.69;;;9.06
24586;BMP280;12743;52.262;6.172;2023-04-21T07:35:09;99723.75;;;9.12
24586;BMP280;12743;52.262;6.172;2023-04-21T07:37:35;99733.63;;;9.03
24586;BMP280;12743;52.262;6.172;2023-04-21T07:40:02;99731.19;;;9.10
24586;BMP280;12743;52.262;6.172;2023-04-21T07:42:29;99729.59;;;9.21
24586;BMP280;12743;52.262;6.172;2023-04-21T07:44:55;99717.81;;;9.15
24586;BMP280;12743;52.262;6.172;2023-04-21T07:47:23;99720.66;;;9.22
24586;BMP280;12743;52.262;6.172;2023-04-21T07:49:49;99736.78;;;9.24
24586;BMP280;12743;52.262;6.172;2023-04-21T07:52:16;99721.41;;;9.38
24586;BMP280;12743;52.262;6.172;2023-04-21T07:54:42;99717.84;;;9.30
24586;BMP280;12743;52.262;6.172;2023-04-21T07:57:09;99721.75;;;9.36
24586;BMP280;12743;52.262;6.172;2023-04-21T07:59:36;99709.66;;;9.16
24586;BMP280;12743;52.262;6.172;2023-04-21T08:02:02;99725.88;;;9.37
24586;BMP280;12743;52.262;6.172;2023-04-21T08:04:29;99725.47;;;9.35
24586;BMP280;12743;52.262;6.172;2023-04-21T08:06:56;99715.31;;;9.34
24586;BMP280;12743;52.262;6.172;2023-04-21T08:09:24;99725.97;;;9.41
24586;BMP280;12743;52.262;6.172;2023-04-21T08:11:50;99695.78;;;9.16
24586;BMP280;12743;52.262;6.172;2023-04-21T08:14:17;99713.91;;;9.36
24586;BMP280;12743;52.262;6.172;2023-04-21T08:16:45;99712.47;;;9.39
24586;BMP280;12743;52.262;6.172;2023-04-21T08:19:12;99703.06;;;9.38
24586;BMP280;12743;52.262;6.172;2023-04-21T08:21:38;99711.09;;;9.45
24586;BMP280;12743;52.262;6.172;2023-04-21T08:24:05;99711.97;;;9.49
24586;BMP280;12743;52.262;6.172;2023-04-21T08:26:34;99672.81;;;9.40
24586;BMP280;12743;52.262;6.172;2023-04-21T08:29:00;99697.19;;;9.60
24586;BMP280;12743;52.262;6.172;2023-04-21T08:31:29;99691.16;;;9.56
24586;BMP280;12743;52.262;6.172;2023-04-21T08:33:56;99702.22;;;9.65
24586;BMP280;12743;52.262;6.172;2023-04-21T08:36:28;99706.19;;;9.75
24586;BMP280;12743;52.262;6.172;2023-04-21T08:38:55;99703.22;;;9.76
24586;BMP280;12743;52.262;6.172;2023-04-21T08:41:23;99703.47;;;9.71
24586;BMP280;12743;52.262;6.172;2023-04-21T08:43:50;99700.63;;;9.76
24586;BMP280;12743;52.262;6.172;2023-04-21T08:46:17;99697.94;;;9.92
24586;BMP280;12743;52.262;6.172;2023-04-21T08:48:45;99687.94;;;9.97
24586;BMP280;12743;52.262;6.172;2023-04-21T08:51:20;99695.13;;;10.00
24586;BMP280;12743;52.262;6.172;2023-04-21T08:53:46;99699.28;;;10.01
24586;BMP280;12743;52.262;6.172;2023-04-21T08:56:13;99696.28;;;10.19
24586;BMP280;12743;52.262;6.172;2023-04-21T08:58:40;99692.75;;;10.11
24586;BMP280;12743;52.262;6.172;2023-04-21T09:01:07;99691.41;;;10.21
24586;BMP280;12743;52.262;6.172;2023-04-21T09:03:34;99681.75;;;10.25
24586;BMP280;12743;52.262;6.172;2023-04-21T09:06:08;99698.69;;;10.27
24586;BMP280;12743;52.262;6.172;2023-04-21T09:08:43;99696.97;;;10.35
24586;BMP280;12743;52.262;6.172;2023-04-21T09:11:17;99677.19;;;10.41
24586;BMP280;12743;52.262;6.172;2023-04-21T09:13:45;99689.06;;;10.54
24586;BMP280;12743;52.262;6.172;2023-04-21T09:16:17;99693.09;;;10.48
24586;BMP280;12743;52.262;6.172;2023-04-21T09:18:43;99696.88;;;10.50
24586;BMP280;12743;52.262;6.172;2023-04-21T09:21:12;99668.63;;;10.25
24586;BMP280;12743;52.262;6.172;2023-04-21T09:23:44;99668.56;;;10.40
24586;BMP280;12743;52.262;6.172;2023-04-21T09:26:12;99695.25;;;10.61
24586;BMP280;12743;52.262;6.172;2023-04-21T09:28:43;99692.31;;;10.66
24586;BMP280;12743;52.262;6.172;2023-04-21T09:31:21;99694.94;;;10.66
24586;BMP280;12743;52.262;6.172;2023-04-21T09:33:56;99687.63;;;10.75
24586;BMP280;12743;52.262;6.172;2023-04-21T09:36:28;99681.09;;;10.89
24586;BMP280;12743;52.262;6.172;2023-04-21T09:39:02;99679.00;;;10.98
24586;BMP280;12743;52.262;6.172;2023-04-21T09:41:32;99683.91;;;11.22
24586;BMP280;12743;52.262;6.172;2023-04-21T09:43:58;99697.06;;;11.25
24586;BMP280;12743;52.262;6.172;2023-04-21T09:46:32;99691.91;;;11.32
24586;BMP280;12743;52.262;6.172;2023-04-21T09:49:00;99716.44;;;11.40
24586;BMP280;12743;52.262;6.172;2023-04-21T09:51:29;99706.75;;;11.44
24586;BMP280;12743;52.262;6.172;2023-04-21T09:54:18;99717.53;;;11.62
24586;BMP280;12743;52.262;6.172;2023-04-21T09:56:52;99753.53;;;11.58
24586;BMP280;12743;52.262;6.172;2023-04-21T09:59:24;99786.59;;;11.59
24586;BMP280;12743;52.262;6.172;2023-04-21T10:01:52;99784.00;;;11.62
24586;BMP280;12743;52.262;6.172;2023-04-21T10:04:19;99799.78;;;11.62
24586;BMP280;12743;52.262;6.172;2023-04-21T10:06:48;99809.94;;;11.60
24586;BMP280;12743;52.262;6.172;2023-04-21T10:09:17;99827.25;;;11.61
24586;BMP280;12743;52.262;6.172;2023-04-21T10:11:46;99821.25;;;11.87
24586;BMP280;12743;52.262;6.172;2023-04-21T10:14:13;99843.81;;;11.88
24586;BMP280;12743;52.262;6.172;2023-04-21T10:16:41;99849.13;;;11.91
24586;BMP280;12743;52.262;6.172;2023-04-21T10:19:28;99855.13;;;11.92
24586;BMP280;12743;52.262;6.172;2023-04-21T10:21:57;99867.19;;;11.93
24586;BMP280;12743;52.262;6.172;2023-04-21T10:24:28;99864.25;;;11.98
24586;BMP280;12743;52.262;6.172;2023-04-21T10:26:58;99845.91;;;12.05
24586;BMP280;12743;52.262;6.172;2023-04-21T10:29:29;99891.81;;;12.04
24586;BMP280;12743;52.262;6.172;2023-04-21T10:32:30;99904.25;;;12.07
24586;BMP280;12743;52.262;6.172;2023-04-21T10:34:56;99890.78;;;12.12
24586;BMP280;12743;52.262;6.172;2023-04-21T10:37:23;99857.66;;;12.07
24586;BMP280;12743;52.262;6.172;2023-04-21T10:39:52;99843.97;;;12.25
24586;BMP280;12743;52.262;6.172;2023-04-21T10:47:39;99841.66;;;12.49
24586;BMP280;12743;52.262;6.172;2023-04-21T10:50:18;99928.47;;;12.42
24586;BMP280;12743;52.262;6.172;2023-04-21T10:52:51;99915.66;;;12.41
24586;BMP280;12743;52.262;6.172;2023-04-21T10:55:19;99939.81;;;12.46
24586;BMP280;12743;52.262;6.172;2023-04-21T10:57:47;99918.94;;;12.60
24586;BMP280;12743;52.262;6.172;2023-04-21T11:00:17;99908.47;;;12.64
24586;BMP280;12743;52.262;6.172;2023-04-21T11:02:52;99927.59;;;12.61
24586;BMP280;12743;52.262;6.172;2023-04-21T11:05:19;99974.63;;;12.59
24586;BMP280;12743;52.262;6.172;2023-04-21T11:08:01;99945.25;;;12.57
24586;BMP280;12743;52.262;6.172;2023-04-21T11:10:27;99939.44;;;12.74
24586;BMP280;12743;52.262;6.172;2023-04-21T11:12:56;99917.72;;;12.80
24586;BMP280;12743;52.262;6.172;2023-04-21T11:15:23;99877.72;;;12.75
24586;BMP280;12743;52.262;6.172;2023-04-21T11:17:49;99880.56;;;12.59
24586;BMP280;12743;52.262;6.172;2023-04-21T11:20:16;99895.97;;;12.61
24586;BMP280;12743;52.262;6.172;2023-04-21T11:22:43;99956.75;;;12.75
24586;BMP280;12743;52.262;6.172;2023-04-21T11:25:18;100066.72;;;12.78
24586;BMP280;12743;52.262;6.172;2023-04-21T11:27:55;100092.91;;;12.90
24586;BMP280;12743;52.262;6.172;2023-04-21T11:30:32;100082.75;;;12.92
24586;BMP280;12743;52.262;6.172;2023-04-21T11:33:02;100089.53;;;12.93
24586;BMP280;12743;52.262;6.172;2023-04-21T11:35:30;100064.03;;;13.01
24586;BMP280;12743;52.262;6.172;2023-04-21T11:37:56;100009.88;;;13.03
24586;BMP280;12743;52.262;6.172;2023-04-21T11:40:23;99968.97;;;13.16
24586;BMP280;12743;52.262;6.172;2023-04-21T11:42:50;99978.66;;;13.09
24586;BMP280;12743;52.262;6.172;2023-04-21T11:45:17;100025.31;;;13.05
24586;BMP280;12743;52.262;6.172;2023-04-21T11:47:47;99991.16;;;13.12
24586;BMP280;12743;52.262;6.172;2023-04-21T11:50:29;100031.72;;;13.04
24586;BMP280;12743;52.262;6.172;2023-04-21T11:52:57;100056.78;;;12.94
24586;BMP280;12743;52.262;6.172;2023-04-21T11:55:23;100033.16;;;13.01
24586;BMP280;12743;52.262;6.172;2023-04-21T11:57:50;100025.22;;;12.98
24586;BMP280;12743;52.262;6.172;2023-04-21T12:00:17;100023.25;;;12.91
24586;BMP280;12743;52.262;6.172;2023-04-21T12:02:53;99995.13;;;12.99
24586;BMP280;12743;52.262;6.172;2023-04-21T12:05:20;99972.94;;;13.00
24586;BMP280;12743;52.262;6.172;2023-04-21T12:07:47;99986.19;;;13.07
24586;BMP280;12743;52.262;6.172;2023-04-21T12:10:17;99974.69;;;13.22
24586;BMP280;12743;52.262;6.172;2023-04-21T12:12:44;99999.06;;;13.12
24586;BMP280;12743;52.262;6.172;2023-04-21T12:15:18;100011.50;;;13.15
24586;BMP280;12743;52.262;6.172;2023-04-21T12:17:54;99973.69;;;13.33
24586;BMP280;12743;52.262;6.172;2023-04-21T12:20:22;100014.72;;;13.31
24586;BMP280;12743;52.262;6.172;2023-04-21T12:22:49;100016.16;;;13.58
24586;BMP280;12743;52.262;6.172;2023-04-21T12:25:15;100019.72;;;13.73
24586;BMP280;12743;52.262;6.172;2023-04-21T12:27:49;100030.53;;;14.01
24586;BMP280;12743;52.262;6.172;2023-04-21T12:30:16;100047.28;;;14.66
24586;BMP280;12743;52.262;6.172;2023-04-21T12:32:43;100088.38;;;14.57
24586;BMP280;12743;52.262;6.172;2023-04-21T12:35:10;100127.38;;;14.74
24586;BMP280;12743;52.262;6.172;2023-04-21T12:37:36;100160.97;;;14.70
24586;BMP280;12743;52.262;6.172;2023-04-21T12:40:03;100182.84;;;15.17
24586;BMP280;12743;52.262;6.172;2023-04-21T12:42:30;100253.81;;;15.63
24586;BMP280;12743;52.262;6.172;2023-04-21T12:44:57;100278.25;;;16.03
24586;BMP280;12743;52.262;6.172;2023-04-21T12:47:24;100265.88;;;15.57
24586;BMP280;12743;52.262;6.172;2023-04-21T12:49:50;100276.25;;;15.21
24586;BMP280;12743;52.262;6.172;2023-04-21T12:52:17;100226.09;;;15.39
24586;BMP280;12743;52.262;6.172;2023-04-21T12:54:43;100234.84;;;15.50
24586;BMP280;12743;52.262;6.172;2023-04-21T12:57:10;100245.91;;;15.12
24586;BMP280;12743;52.262;6.172;2023-04-21T12:59:36;100263.38;;;15.20
24586;BMP280;12743;52.262;6.172;2023-04-21T13:02:03;100234.69;;;15.29
24586;BMP280;12743;52.262;6.172;2023-04-21T13:04:30;100206.97;;;15.12
24586;BMP280;12743;52.262;6.172;2023-04-21T13:06:58;100229.38;;;15.25
24586;BMP280;12743;52.262;6.172;2023-04-21T13:09:24;100227.41;;;15.15
24586;BMP280;12743;52.262;6.172;2023-04-21T13:11:51;100242.13;;;15.13
24586;BMP280;12743;52.262;6.172;2023-04-21T13:14:17;100204.16;;;15.42
24586;BMP280;12743;52.262;6.172;2023-04-21T13:16:44;100225.41;;;15.56
24586;BMP280;12743;52.262;6.172;2023-04-21T13:19:11;100196.31;;;15.60
24586;BMP280;12743;52.262;6.172;2023-04-21T13:21:37;100266.91;;;15.45
24586;BMP280;12743;52.262;6.172;2023-04-21T13:24:04;100230.69;;;15.49
24586;BMP280;12743;52.262;6.172;2023-04-21T13:26:32;100243.19;;;15.56
24586;BMP280;12743;52.262;6.172;2023-04-21T13:29:01;100260.88;;;15.41
24586;BMP280;12743;52.262;6.172;2023-04-21T13:31:28;100263.59;;;15.55
24586;BMP280;12743;52.262;6.172;2023-04-21T13:33:55;100257.63;;;15.65
24586;BMP280;12743;52.262;6.172;2023-04-21T13:36:22;100268.31;;;15.86
24586;BMP280;12743;52.262;6.172;2023-04-21T13:38:48;100261.53;;;15.92
24586;BMP280;12743;52.262;6.172;2023-04-21T13:41:16;100268.31;;;15.83
24586;BMP280;12743;52.262;6.172;2023-04-21T13:43:42;100203.50;;;15.59
24586;BMP280;12743;52.262;6.172;2023-04-21T13:46:09;100239.16;;;15.79
24586;BMP280;12743;52.262;6.172;2023-04-21T13:48:36;100223.75;;;16.02
24586;BMP280;12743;52.262;6.172;2023-04-21T13:51:02;100256.69;;;16.12
24586;BMP280;12743;52.262;6.172;2023-04-21T13:53:29;100271.78;;;16.04
24586;BMP280;12743;52.262;6.172;2023-04-21T13:55:56;100246.47;;;16.03
24586;BMP280;12743;52.262;6.172;2023-04-21T13:58:24;100244.13;;;15.91
24586;BMP280;12743;52.262;6.172;2023-04-21T14:00:51;100254.31;;;15.82
24586;BMP280;12743;52.262;6.172;2023-04-21T14:03:17;100245.16;;;15.73
24586;BMP280;12743;52.262;6.172;2023-04-21T14:05:44;100239.19;;;15.83
24586;BMP280;12743;52.262;6.172;2023-04-21T14:08:11;100239.50;;;15.71
24586;BMP280;12743;52.262;6.172;2023-04-21T14:10:38;100232.38;;;15.85
24586;BMP280;12743;52.262;6.172;2023-04-21T14:13:04;100222.53;;;15.82
24586;BMP280;12743;52.262;6.172;2023-04-21T14:15:31;100215.31;;;15.76
24586;BMP280;12743;52.262;6.172;2023-04-21T14:17:57;100189.22;;;15.74
24586;BMP280;12743;52.262;6.172;2023-04-21T14:20:25;100188.47;;;15.77
24586;BMP280;12743;52.262;6.172;2023-04-21T14:22:52;100205.81;;;15.61